Time;durP1;ratioP1;P1;durP2;ratioP2;P2;SDS_P1;SDS_P2;PMS_P1;PMS_P2;Temp;Humidity;BMP_temperature;BMP_pressure;BME280_temperature;BME280_humidity;BME280_pressure;Samples;Min_cycle;Max_cycle;Signal;HPM_P1;HPM_P2
2024/02/08 00:01:31;;;;;;;56.97;28.30;;;7.30;99.90;;;;;;7284345;19;20664;-84
2024/02/08 00:03:56;;;;;;;63.83;30.03;;;7.30;99.90;;;;;;7284703;19;20206;-83
2024/02/08 00:06:22;;;;;;;64.27;30.77;;;7.40;99.90;;;;;;7281664;19;20185;-84
2024/02/08 00:08:53;;;;;;;64.53;29.70;;;7.40;99.90;;;;;;7284827;19;20861;-82
2024/02/08 00:11:20;;;;;;;57.20;28.67;;;7.50;99.90;;;;;;7286802;19;20189;-81
2024/02/08 00:13:45;;;;;;;56.23;26.63;;;7.60;99.90;;;;;;7282879;19;20711;-82
2024/02/08 00:16:12;;;;;;;59.20;27.57;;;7.60;99.90;;;;;;7284192;19;20255;-82
2024/02/08 00:18:38;;;;;;;56.03;26.83;;;7.70;99.90;;;;;;7296507;19;20189;-82
2024/02/08 00:21:04;;;;;;;57.07;27.23;;;7.80;99.90;;;;;;7304297;19;20258;-83
2024/02/08 00:23:29;;;;;;;50.60;24.53;;;7.80;99.90;;;;;;7283620;19;20610;-83
2024/02/08 00:25:55;;;;;;;50.30;23.43;;;7.80;99.90;;;;;;7281939;19;20189;-82
2024/02/08 00:28:21;;;;;;;50.13;22.83;;;7.80;99.90;;;;;;7282133;19;20577;-82
2024/02/08 00:30:47;;;;;;;49.30;23.80;;;7.90;99.90;;;;;;7283060;19;20782;-82
2024/02/08 00:33:13;;;;;;;45.10;22.67;;;7.90;99.90;;;;;;7281559;19;20196;-83
2024/02/08 00:35:39;;;;;;;46.23;22.90;;;8.00;99.90;;;;;;7283633;19;20185;-82
2024/02/08 00:38:04;;;;;;;37.77;18.47;;;7.90;99.90;;;;;;7304342;19;20185;-82
2024/02/08 00:40:30;;;;;;;39.40;19.50;;;7.90;99.90;;;;;;7282942;19;20205;-82
2024/02/08 00:42:56;;;;;;;41.53;20.27;;;8.00;99.90;;;;;;7283691;19;20193;-82
2024/02/08 00:45:22;;;;;;;38.57;19.10;;;8.00;99.90;;;;;;7282785;19;22231;-82
2024/02/08 00:47:54;;;;;;;38.23;18.33;;;8.10;99.90;;;;;;7283124;19;20200;-82
2024/02/08 00:50:21;;;;;;;30.90;16.53;;;8.10;99.90;;;;;;7288001;19;20200;-83
2024/02/08 00:52:49;;;;;;;43.57;22.03;;;8.00;99.90;;;;;;7289166;19;20200;-82
2024/02/08 00:55:16;;;;;;;51.37;24.37;;;7.90;99.90;;;;;;7288871;19;20212;-82
2024/02/08 00:57:42;;;;;;;50.97;23.60;;;7.90;99.90;;;;;;7291203;19;20188;-82
2024/02/08 01:00:09;;;;;;;53.97;25.20;;;8.00;99.90;;;;;;7300358;19;20189;-81
2024/02/08 01:02:35;;;;;;;52.73;25.53;;;7.90;99.90;;;;;;7313654;19;20195;-82
2024/02/08 01:05:01;;;;;;;58.10;25.90;;;7.80;99.90;;;;;;7288603;19;20181;-82
2024/02/08 01:07:31;;;;;;;56.37;25.90;;;7.80;99.90;;;;;;7289641;19;21498;-82
2024/02/08 01:09:58;;;;;;;59.40;26.13;;;7.90;99.90;;;;;;7289061;19;20191;-82
2024/02/08 01:12:23;;;;;;;54.93;25.73;;;7.80;99.90;;;;;;7289718;19;20185;-82
2024/02/08 01:14:50;;;;;;;58.13;25.97;;;8.00;99.90;;;;;;7289952;19;20208;-82
2024/02/08 01:17:16;;;;;;;61.40;27.40;;;7.90;99.90;;;;;;7288410;19;20192;-82
2024/02/08 01:19:42;;;;;;;66.27;26.93;;;7.90;99.90;;;;;;7288032;19;20260;-82
2024/02/08 01:22:08;;;;;;;64.10;26.80;;;7.70;99.90;;;;;;7302644;19;20208;-82
2024/02/08 01:24:34;;;;;;;67.07;28.60;;;7.70;99.90;;;;;;7304468;19;20192;-82
2024/02/08 01:27:01;;;;;;;65.83;26.63;;;7.60;99.90;;;;;;7286458;19;20748;-83
2024/02/08 01:29:26;;;;;;;56.17;24.57;;;7.60;99.90;;;;;;7289774;19;20201;-82
2024/02/08 01:31:53;;;;;;;59.50;24.07;;;7.70;99.90;;;;;;7287820;19;20184;-82
2024/02/08 01:34:19;;;;;;;54.40;23.67;;;7.70;99.90;;;;;;7288824;19;20273;-81
2024/02/08 01:36:49;;;;;;;58.77;24.27;;;7.60;99.90;;;;;;7287710;19;20600;-82
2024/02/08 01:39:22;;;;;;;55.53;24.00;;;7.60;99.90;;;;;;7288132;19;20732;-82
2024/02/08 01:41:51;;;;;;;50.53;22.57;;;7.50;99.90;;;;;;7288392;19;20205;-82
2024/02/08 01:44:18;;;;;;;54.17;22.93;;;7.50;99.90;;;;;;7287177;19;20185;-82
2024/02/08 01:46:43;;;;;;;53.17;23.57;;;7.40;99.90;;;;;;7286292;19;20187;-82
2024/02/08 01:49:37;;;;;;;50.90;23.60;;;7.40;99.90;;;;;;7289204;19;20193;-81
2024/02/08 01:52:04;;;;;;;50.33;21.50;;;7.50;99.90;;;;;;7288422;19;20184;-82
2024/02/08 01:54:30;;;;;;;52.40;22.80;;;7.50;99.90;;;;;;7287180;19;20765;-82
2024/02/08 01:56:58;;;;;;;50.43;21.70;;;7.50;99.90;;;;;;7286578;19;20188;-82
2024/02/08 01:59:25;;;;;;;50.70;22.93;;;7.50;99.90;;;;;;7286915;19;20703;-81
2024/02/08 02:01:54;;;;;;;50.53;21.20;;;7.50;99.90;;;;;;7287718;19;20195;-82
2024/02/08 02:04:20;;;;;;;57.83;23.90;;;7.50;99.90;;;;;;7288067;19;20194;-81
2024/02/08 02:06:46;;;;;;;56.93;23.30;;;7.60;99.90;;;;;;7288018;19;20619;-82
2024/02/08 02:09:23;;;;;;;57.63;24.10;;;7.60;99.90;;;;;;7287574;19;20724;-82
2024/02/08 02:12:12;;;;;;;55.43;23.33;;;7.60;99.90;;;;;;7287332;19;20667;-82
2024/02/08 02:14:39;;;;;;;55.80;23.27;;;7.60;99.90;;;;;;7280611;19;20220;-81
2024/02/08 02:17:12;;;;;;;59.20;22.87;;;7.60;99.90;;;;;;7309371;19;20680;-82
2024/02/08 02:19:39;;;;;;;64.23;23.80;;;7.50;99.90;;;;;;7276954;19;20283;-81
2024/02/08 02:22:07;;;;;;;61.93;23.50;;;7.40;99.90;;;;;;7309279;19;20273;-82
2024/02/08 02:24:40;;;;;;;57.00;23.80;;;7.40;99.90;;;;;;7288133;19;20188;-81
2024/02/08 02:27:06;;;;;;;56.57;23.03;;;7.30;99.90;;;;;;7287240;19;20198;-83
2024/02/08 02:29:38;;;;;;;63.93;24.10;;;7.30;99.90;;;;;;7286150;19;20252;-82
2024/02/08 02:32:20;;;;;;;56.47;22.30;;;7.30;99.90;;;;;;7286941;19;20192;-82
2024/02/08 02:34:51;;;;;;;63.70;24.17;;;7.30;99.90;;;;;;7184653;19;2006177;-82
2024/02/08 02:37:18;;;;;;;58.00;22.80;;;7.30;99.90;;;;;;7286783;19;20291;-81
2024/02/08 02:39:45;;;;;;;67.80;24.10;;;7.30;99.90;;;;;;7285559;19;21002;-82
2024/02/08 02:42:11;;;;;;;64.37;23.77;;;7.20;99.90;;;;;;7288597;19;20203;-81
2024/02/08 02:44:37;;;;;;;68.70;23.77;;;7.20;99.90;;;;;;7309691;19;20606;-82
2024/02/08 02:47:05;;;;;;;70.73;24.73;;;7.20;99.90;;;;;;7286064;19;20181;-82
2024/02/08 02:49:36;;;;;;;65.23;22.80;;;7.10;99.90;;;;;;7285599;19;20212;-82
2024/02/08 02:52:07;;;;;;;59.83;20.73;;;7.10;99.90;;;;;;7285241;19;20257;-82
2024/02/08 02:54:34;;;;;;;63.83;22.40;;;7.10;99.90;;;;;;7285222;19;20194;-81
2024/02/08 02:57:00;;;;;;;68.67;23.77;;;7.00;99.90;;;;;;7285737;19;20205;-82
2024/02/08 02:59:26;;;;;;;62.70;23.20;;;7.10;99.90;;;;;;7285230;19;20179;-82
2024/02/08 03:01:55;;;;;;;61.20;21.30;;;7.10;99.90;;;;;;7286220;19;21142;-81
2024/02/08 03:04:22;;;;;;;55.97;20.80;;;7.10;99.90;;;;;;7284987;19;20192;-81
2024/02/08 03:06:52;;;;;;;66.50;21.80;;;7.20;99.90;;;;;;7283397;19;20209;-81
2024/02/08 03:09:27;;;;;;;63.87;22.07;;;7.30;99.90;;;;;;7284772;19;20185;-80
2024/02/08 03:11:54;;;;;;;77.23;24.57;;;7.30;99.90;;;;;;7282417;19;20184;-80
2024/02/08 03:14:22;;;;;;;69.93;23.77;;;7.10;99.90;;;;;;7283714;19;20188;-80
2024/02/08 03:16:51;;;;;;;77.37;23.67;;;7.00;99.90;;;;;;7286537;19;20654;-81
2024/02/08 03:19:17;;;;;;;69.73;21.77;;;6.90;99.90;;;;;;7283988;19;20188;-80
2024/02/08 03:21:45;;;;;;;75.23;23.03;;;7.00;99.90;;;;;;7285347;19;20292;-81
2024/02/08 03:24:11;;;;;;;71.20;22.27;;;6.90;99.90;;;;;;7285947;19;20188;-81
2024/02/08 03:26:45;;;;;;;75.57;22.57;;;6.80;99.90;;;;;;7306742;19;20225;-81
2024/02/08 03:29:11;;;;;;;63.17;20.13;;;6.90;99.90;;;;;;7264816;19;20197;-80
2024/02/08 03:31:45;;;;;;;69.50;22.73;;;6.90;99.90;;;;;;7308517;19;20189;-81
2024/02/08 03:34:20;;;;;;;66.67;21.77;;;6.80;99.90;;;;;;7266859;19;20213;-80
2024/02/08 03:36:46;;;;;;;59.67;20.63;;;6.80;99.90;;;;;;7291381;19;20184;-81
2024/02/08 03:39:24;;;;;;;58.93;20.77;;;6.80;99.90;;;;;;7291577;19;20180;-80
2024/02/08 03:42:01;;;;;;;68.57;21.43;;;6.80;99.90;;;;;;7291062;19;20197;-81
2024/02/08 03:44:30;;;;;;;67.57;21.70;;;6.80;99.90;;;;;;7284821;19;20196;-80
2024/02/08 03:47:04;;;;;;;65.83;22.47;;;6.80;99.90;;;;;;7283881;19;20245;-81
2024/02/08 03:49:31;;;;;;;55.17;21.07;;;6.80;99.90;;;;;;7285312;19;20204;-81
2024/02/08 03:51:57;;;;;;;58.00;21.80;;;6.80;99.90;;;;;;7284036;19;20219;-81
2024/02/08 03:54:24;;;;;;;58.80;21.60;;;6.90;99.90;;;;;;7284517;19;20189;-81
2024/02/08 03:56:51;;;;;;;61.90;22.40;;;6.80;99.90;;;;;;7285482;19;20199;-81
2024/02/08 03:59:26;;;;;;;59.37;21.53;;;6.90;99.90;;;;;;7290701;19;20554;-80
2024/02/08 04:02:05;;;;;;;54.57;21.23;;;6.90;99.90;;;;;;7296430;19;20188;-80
2024/02/08 04:05:05;;;;;;;45.33;20.27;;;7.00;99.90;;;;;;7298064;19;20190;-80
2024/02/08 04:10:19;;;;;;;55.40;21.03;;;7.00;99.90;;;;;;7184280;19;2004615;-80
2024/02/08 04:53:31;;;;;;;51.47;21.17;;;7.00;99.90;;;;;;7285901;19;20896;-80
2024/02/08 04:53:55;;;;;;;43.17;17.00;;;7.00;99.90;;;;;;7281937;19;20284;-80
2024/02/08 04:56:21;;;;;;;38.20;15.97;;;6.90;99.90;;;;;;7283016;19;20187;-80
2024/02/08 04:58:47;;;;;;;38.43;15.73;;;6.80;99.90;;;;;;7282775;19;20671;-79
2024/02/08 05:01:13;;;;;;;41.43;16.73;;;6.80;99.90;;;;;;7282297;19;20220;-79
2024/02/08 05:03:42;;;;;;;42.60;17.33;;;7.00;99.90;;;;;;7292322;19;20177;-79
2024/02/08 05:06:21;;;;;;;39.87;16.30;;;6.90;99.90;;;;;;7303980;19;20573;-80
2024/02/08 05:08:49;;;;;;;45.13;17.30;;;6.80;99.90;;;;;;7180213;19;2004517;-79
2024/02/08 05:11:15;;;;;;;40.63;15.97;;;6.80;99.90;;;;;;7280507;19;20187;-79
2024/02/08 05:13:43;;;;;;;43.03;16.40;;;6.90;99.90;;;;;;7280505;19;20217;-79
2024/02/08 05:16:14;;;;;;;43.60;16.50;;;6.90;99.90;;;;;;7296390;19;20185;-79
2024/02/08 05:18:48;;;;;;;45.17;17.17;;;7.00;99.90;;;;;;7286055;19;20256;-79
2024/02/08 05:21:16;;;;;;;45.23;17.37;;;7.10;99.90;;;;;;7280227;19;20227;-79
2024/02/08 05:23:42;;;;;;;41.43;16.33;;;7.20;99.90;;;;;;7279746;19;20268;-79
2024/02/08 05:26:18;;;;;;;46.70;16.83;;;7.20;99.90;;;;;;7299146;19;20314;-78
2024/02/08 05:28:47;;;;;;;48.87;17.70;;;7.00;99.90;;;;;;7279886;19;20175;-79
2024/02/08 05:31:12;;;;;;;52.07;18.63;;;7.00;99.90;;;;;;7279927;19;20184;-80
2024/02/08 05:33:40;;;;;;;53.03;18.20;;;7.00;99.90;;;;;;7302616;19;20758;-78
2024/02/08 05:36:11;;;;;;;48.47;16.83;;;7.10;99.90;;;;;;7311672;19;20699;-80
2024/02/08 05:38:37;;;;;;;51.27;18.60;;;7.10;99.90;;;;;;7286723;19;20181;-80
2024/02/08 05:41:10;;;;;;;51.83;17.40;;;7.10;99.90;;;;;;7289654;19;20189;-80
2024/02/08 05:43:45;;;;;;;62.87;18.77;;;7.10;99.90;;;;;;7288710;19;20185;-80
2024/02/08 05:46:19;;;;;;;49.30;17.67;;;7.10;99.90;;;;;;7265832;19;20195;-79
2024/02/08 05:48:51;;;;;;;53.73;18.60;;;7.00;99.90;;;;;;7287246;19;20222;-80
2024/02/08 05:51:20;;;;;;;46.40;16.53;;;7.00;99.90;;;;;;7288030;19;20196;-80
2024/02/08 05:53:51;;;;;;;51.03;16.77;;;7.00;99.90;;;;;;7288388;19;20199;-79
2024/02/08 05:56:25;;;;;;;53.87;17.17;;;7.00;99.90;;;;;;7287027;19;20192;-79
2024/02/08 05:58:52;;;;;;;431.53;33.43;;;7.10;99.90;;;;;;7287206;19;20542;-78
2024/02/08 06:01:23;;;;;;;45.73;16.77;;;7.20;99.90;;;;;;7286846;19;20233;-79
2024/02/08 06:03:49;;;;;;;67.97;17.80;;;7.10;99.90;;;;;;7288148;19;20196;-80
2024/02/08 06:06:26;;;;;;;45.90;17.03;;;7.20;99.90;;;;;;7287057;19;20199;-78
2024/02/08 06:08:56;;;;;;;46.67;16.50;;;7.20;99.90;;;;;;7287990;19;20185;-79
2024/02/08 06:11:23;;;;;;;47.70;16.70;;;7.20;99.90;;;;;;7287149;19;20189;-79
2024/02/08 06:13:59;;;;;;;46.53;16.40;;;7.30;99.90;;;;;;7285964;19;20188;-79
2024/02/08 06:16:33;;;;;;;37.93;15.10;;;7.30;99.90;;;;;;7284813;19;20532;-78
2024/02/08 06:19:02;;;;;;;39.60;14.67;;;7.30;99.90;;;;;;7282660;19;20274;-80
2024/02/08 06:21:40;;;;;;;38.60;14.90;;;7.20;99.90;;;;;;7284790;19;20257;-80
2024/02/08 06:24:29;;;;;;;42.47;16.20;;;7.30;99.90;;;;;;7283494;19;20578;-80
2024/02/08 06:27:01;;;;;;;40.30;15.37;;;7.30;99.90;;;;;;7182511;19;2004653;-79
2024/02/08 06:29:43;;;;;;;38.43;15.23;;;7.30;99.90;;;;;;7283855;19;20207;-79
2024/02/08 06:32:23;;;;;;;40.60;14.93;;;7.30;99.90;;;;;;7282175;19;20196;-78
2024/02/08 06:35:13;;;;;;;37.47;14.10;;;7.30;99.90;;;;;;7286880;19;20256;-84
2024/02/08 06:37:44;;;;;;;39.00;15.00;;;7.20;99.90;;;;;;7270700;19;20273;-78
2024/02/08 07:37:55;;;;;;;39.10;15.23;;;6.90;99.90;;;;;;7283471;19;20191;-79
2024/02/08 07:40:25;;;;;;;42.13;15.03;;;6.90;99.90;;;;;;7284673;19;20215;-78
2024/02/08 07:42:52;;;;;;;45.03;16.07;;;6.90;99.90;;;;;;7284807;19;20185;-79
2024/02/08 07:45:29;;;;;;;40.77;15.30;;;7.00;99.90;;;;;;7285011;19;20192;-78
2024/02/08 07:48:08;;;;;;;41.27;15.30;;;7.00;99.90;;;;;;7281826;19;20307;-79
2024/02/08 07:50:44;;;;;;;38.70;14.33;;;7.10;99.90;;;;;;7284592;19;20269;-78
2024/02/08 07:53:34;;;;;;;37.07;13.73;;;7.10;99.90;;;;;;7261181;19;20212;-79
2024/02/08 07:56:29;;;;;;;33.03;12.53;;;7.20;99.90;;;;;;7282823;19;20202;-79
2024/02/08 07:58:48;;;;;;;34.90;13.20;;;7.30;99.90;;;;;;7181949;19;2004586;-79
2024/02/08 08:01:18;;;;;;;36.07;14.10;;;7.20;99.90;;;;;;7283313;19;20186;-79
2024/02/08 08:03:55;;;;;;;34.37;12.93;;;7.30;99.90;;;;;;7284420;19;20251;-79
2024/02/08 08:06:22;;;;;;;31.60;12.50;;;7.30;99.90;;;;;;7282656;19;20200;-80
2024/02/08 08:08:57;;;;;;;32.80;12.47;;;7.10;99.90;;;;;;7281984;19;20275;-80
2024/02/08 08:11:31;;;;;;;28.70;11.07;;;7.10;99.90;;;;;;7280560;19;20226;-80
2024/02/08 08:19:07;;;;;;;33.97;11.30;;;7.10;99.90;;;;;;7281937;19;20181;-79
2024/02/08 08:24:26;;;;;;;31.87;11.50;;;7.20;99.90;;;;;;7179453;19;2006451;-78
2024/02/08 08:29:44;;;;;;;28.33;10.07;;;7.10;99.90;;;;;;7261824;19;20189;-78
2024/02/08 08:35:37;;;;;;;26.73;9.83;;;7.30;99.90;;;;;;7260761;19;20196;-79
2024/02/08 08:40:59;;;;;;;24.73;9.00;;;7.10;99.90;;;;;;7260494;19;20193;-79
2024/02/08 08:43:26;;;;;;;21.07;8.10;;;7.10;99.90;;;;;;7283011;19;20191;-79
2024/02/08 08:45:59;;;;;;;22.37;7.77;;;7.10;99.90;;;;;;7282059;19;20260;-79
2024/02/08 08:48:33;;;;;;;20.87;8.60;;;7.20;99.90;;;;;;7282499;19;20193;-79
2024/02/08 08:51:10;;;;;;;22.10;8.23;;;7.20;99.90;;;;;;7282160;19;20216;-79
2024/02/08 08:53:43;;;;;;;18.80;7.70;;;7.20;99.90;;;;;;7283466;19;20194;-79
2024/02/08 08:56:12;;;;;;;19.17;7.17;;;7.20;99.90;;;;;;7280180;19;20224;-76
2024/02/08 08:58:39;;;;;;;19.20;7.63;;;7.20;99.90;;;;;;7304248;19;20408;-79
2024/02/08 09:01:15;;;;;;;17.47;6.77;;;7.30;99.90;;;;;;7282726;19;20509;-79
2024/02/08 09:03:43;;;;;;;19.53;6.23;;;7.40;99.90;;;;;;7260618;19;20193;-78
2024/02/08 09:06:12;;;;;;;16.77;6.33;;;7.50;99.90;;;;;;7300235;19;20189;-78
2024/02/08 09:08:59;;;;;;;16.20;5.87;;;7.60;99.90;;;;;;7305008;19;20208;-80
2024/02/08 09:11:25;;;;;;;16.10;5.87;;;7.70;99.90;;;;;;7187135;19;2004606;-79
2024/02/08 09:13:52;;;;;;;13.13;5.60;;;7.80;99.90;;;;;;7288784;19;20189;-79
2024/02/08 09:21:26;;;;;;;14.17;6.03;;;7.70;99.90;;;;;;7288039;19;20199;-79
2024/02/08 09:23:54;;;;;;;14.70;5.30;;;7.60;99.90;;;;;;7290096;19;20571;-79
2024/02/08 09:26:24;;;;;;;13.63;5.90;;;7.60;99.90;;;;;;7288822;19;20205;-79
2024/02/08 09:28:50;;;;;;;13.93;5.17;;;7.60;99.90;;;;;;7287765;19;20213;-79
2024/02/08 09:31:17;;;;;;;14.73;4.90;;;7.50;99.90;;;;;;7288360;19;20181;-78
2024/02/08 09:34:00;;;;;;;13.77;5.53;;;7.50;99.90;;;;;;7288001;19;20648;-79
2024/02/08 09:36:26;;;;;;;15.13;5.30;;;7.50;99.90;;;;;;7288687;19;20192;-78
2024/02/08 09:38:52;;;;;;;13.47;5.40;;;7.50;99.90;;;;;;7287093;19;20640;-79
2024/02/08 09:41:25;;;;;;;13.87;5.43;;;7.50;99.90;;;;;;7289170;19;20209;-79
2024/02/08 09:43:56;;;;;;;15.00;5.40;;;7.50;99.90;;;;;;7290146;19;20185;-79
2024/02/08 09:49:13;;;;;;;14.57;5.37;;;7.40;99.90;;;;;;7288587;19;20181;-79
2024/02/08 09:51:52;;;;;;;15.43;6.10;;;7.40;99.90;;;;;;7288265;19;20186;-79
2024/02/08 09:54:27;;;;;;;17.73;6.70;;;7.50;99.90;;;;;;7184271;19;2004711;-79
2024/02/08 09:56:56;;;;;;;12.57;5.27;;;7.50;99.90;;;;;;7289005;19;20190;-79
2024/02/08 10:02:24;;;;;;;15.37;5.77;;;7.70;99.90;;;;;;7288140;19;20188;-79
2024/02/08 10:04:57;;;;;;;14.53;5.50;;;7.60;99.90;;;;;;7185399;19;2004648;-80
2024/02/08 10:07:34;;;;;;;14.27;5.53;;;7.70;99.90;;;;;;7287808;19;20189;-79
2024/02/08 10:10:15;;;;;;;14.00;5.93;;;7.70;99.90;;;;;;7287927;19;20320;-79
2024/02/08 10:12:53;;;;;;;14.70;6.17;;;7.70;99.90;;;;;;7271460;19;20188;-78
2024/02/08 10:15:26;;;;;;;14.67;5.97;;;7.70;99.90;;;;;;7288323;19;20305;-79
2024/02/08 10:18:10;;;;;;;12.00;5.17;;;7.60;99.90;;;;;;7287191;19;20188;-78
2024/02/08 10:20:45;;;;;;;15.37;5.77;;;7.60;99.90;;;;;;7285434;19;20211;-79
2024/02/08 10:23:33;;;;;;;14.67;6.20;;;7.80;99.90;;;;;;7266960;19;20189;-79
2024/02/08 10:28:46;;;;;;;15.33;6.67;;;7.90;99.90;;;;;;7184251;19;2004414;-79
2024/02/08 10:31:18;;;;;;;16.10;6.80;;;7.90;99.90;;;;;;7285567;19;20691;-79
2024/02/08 10:33:48;;;;;;;15.77;7.10;;;8.00;99.90;;;;;;7285381;19;20182;-82
2024/02/08 10:36:21;;;;;;;16.67;7.97;;;8.10;99.90;;;;;;7286547;19;20192;-80
2024/02/08 10:38:55;;;;;;;15.13;6.50;;;8.10;99.90;;;;;;7286689;19;20710;-81
2024/02/08 10:41:35;;;;;;;17.27;7.10;;;8.30;99.90;;;;;;7287759;19;20251;-81
2024/02/08 10:44:05;;;;;;;15.23;7.33;;;8.20;99.90;;;;;;7291289;19;20241;-80
2024/02/08 10:46:34;;;;;;;15.77;6.93;;;8.20;99.90;;;;;;7284221;19;20193;-80
2024/02/08 10:49:00;;;;;;;14.57;7.30;;;8.20;99.90;;;;;;7286743;19;20634;-80
2024/02/08 10:51:27;;;;;;;15.90;7.80;;;8.20;99.90;;;;;;7284914;19;20307;-80
2024/02/08 10:54:14;;;;;;;14.93;7.60;;;8.20;99.90;;;;;;7282972;19;20189;-81
2024/02/08 10:57:06;;;;;;;16.00;7.73;;;8.00;99.90;;;;;;7278906;19;20192;-77
2024/02/08 10:59:50;;;;;;;16.73;8.27;;;8.00;99.90;;;;;;7283624;19;20192;-80
2024/02/08 11:02:35;;;;;;;15.23;7.47;;;8.30;99.90;;;;;;7182280;19;2004387;-79
2024/02/08 11:08:07;;;;;;;18.03;7.70;;;8.60;99.90;;;;;;7181046;19;2005070;-80
2024/02/08 11:10:33;;;;;;;16.93;8.17;;;8.80;99.90;;;;;;7286178;19;20541;-80
2024/02/08 11:13:10;;;;;;;19.30;8.50;;;8.90;99.90;;;;;;7285064;19;20185;-79
2024/02/08 11:15:41;;;;;;;27.47;15.33;;;8.90;99.90;;;;;;7286450;19;20194;-79
2024/02/08 11:18:33;;;;;;;21.60;11.83;;;8.80;99.90;;;;;;7285375;19;20190;-80
2024/02/08 11:21:04;;;;;;;49.43;20.97;;;8.70;99.90;;;;;;7181752;19;2004604;-80
2024/02/08 11:23:32;;;;;;;62.93;24.17;;;8.80;99.90;;;;;;7283448;19;20200;-77
2024/02/08 11:26:08;;;;;;;48.80;18.17;;;8.80;99.90;;;;;;7283501;19;20539;-79
2024/02/08 11:28:44;;;;;;;43.20;18.30;;;8.80;99.90;;;;;;7283911;19;20193;-80
2024/02/08 11:31:13;;;;;;;25.60;12.90;;;8.90;99.90;;;;;;7266715;19;20190;-79
2024/02/08 11:33:42;;;;;;;18.60;9.77;;;9.00;99.90;;;;;;7303808;19;20193;-79
2024/02/08 11:36:16;;;;;;;19.83;9.73;;;9.00;99.90;;;;;;7284130;19;20225;-80
2024/02/08 11:38:53;;;;;;;23.07;10.80;;;9.10;99.90;;;;;;7261455;19;20266;-79
2024/02/08 11:41:25;;;;;;;19.53;10.30;;;9.20;99.90;;;;;;7280047;19;20280;-79
2024/02/08 11:44:11;;;;;;;18.40;10.13;;;9.20;99.90;;;;;;7284487;19;20185;-80
2024/02/08 11:46:45;;;;;;;22.93;10.13;;;9.20;99.90;;;;;;7283225;19;20986;-80
2024/02/08 11:49:15;;;;;;;27.67;10.50;;;9.30;99.90;;;;;;7264586;19;20198;-80
2024/02/08 11:51:48;;;;;;;23.63;10.57;;;9.50;99.90;;;;;;7289513;19;20558;-79
2024/02/08 11:54:28;;;;;;;22.20;11.20;;;9.50;99.90;;;;;;7282923;19;20193;-80
2024/02/08 11:56:57;;;;;;;20.97;10.63;;;9.60;99.90;;;;;;7284839;19;20189;-80
2024/02/08 11:59:25;;;;;;;24.07;11.13;;;9.70;99.90;;;;;;7283684;19;20261;-79
2024/02/08 12:01:52;;;;;;;23.67;11.40;;;9.80;99.90;;;;;;7282853;19;20769;-80
2024/02/08 12:04:22;;;;;;;23.60;10.70;;;10.00;99.90;;;;;;7283795;19;20258;-80
2024/02/08 12:06:49;;;;;;;31.30;11.27;;;10.10;99.90;;;;;;7282758;19;20186;-80
2024/02/08 12:09:22;;;;;;;25.70;10.73;;;10.30;99.90;;;;;;7284038;19;20673;-80
2024/02/08 12:11:49;;;;;;;25.40;10.43;;;10.60;99.90;;;;;;7284026;19;20195;-78
2024/02/08 12:14:18;;;;;;;28.67;11.73;;;10.90;99.90;;;;;;7283029;19;20187;-80
2024/02/08 12:16:46;;;;;;;31.00;8.40;;;11.10;99.90;;;;;;7284267;19;20309;-80
2024/02/08 12:19:19;;;;;;;36.80;9.20;;;11.40;99.90;;;;;;7282783;19;20187;-80
2024/02/08 12:21:59;;;;;;;32.23;7.90;;;11.60;99.90;;;;;;7283543;19;20914;-80
2024/02/08 12:24:31;;;;;;;35.17;6.97;;;11.80;99.90;;;;;;7291299;19;20195;-80
2024/02/08 12:27:12;;;;;;;37.57;6.70;;;12.00;99.90;;;;;;7290186;19;20195;-80
2024/02/08 12:29:42;;;;;;;32.43;6.43;;;12.20;99.90;;;;;;7285065;19;20196;-80
2024/02/08 12:32:16;;;;;;;26.77;6.07;;;12.30;99.90;;;;;;7284549;19;20180;-80
2024/02/08 12:34:43;;;;;;;26.77;5.50;;;12.40;99.90;;;;;;7265629;19;20210;-80
2024/02/08 12:37:12;;;;;;;26.90;5.40;;;12.50;99.90;;;;;;7307089;19;20283;-80
2024/02/08 12:39:44;;;;;;;25.73;5.03;;;12.50;99.90;;;;;;7283579;19;20184;-80
2024/02/08 12:42:13;;;;;;;23.90;5.77;;;12.60;99.90;;;;;;7277928;19;20212;-79
2024/02/08 12:44:39;;;;;;;19.73;4.37;;;12.70;99.90;;;;;;7311568;19;20560;-80
2024/02/08 12:47:09;;;;;;;23.60;4.73;;;12.80;99.90;;;;;;7288861;19;20209;-80
2024/02/08 12:49:35;;;;;;;20.83;4.40;;;12.90;99.90;;;;;;7289799;19;20614;-80
2024/02/08 12:52:03;;;;;;;20.47;4.43;;;12.90;99.90;;;;;;7289391;19;20198;-80
2024/02/08 12:54:29;;;;;;;19.40;4.80;;;12.90;99.90;;;;;;7287532;19;20195;-80
2024/02/08 12:57:10;;;;;;;20.17;4.10;;;13.00;99.90;;;;;;7288909;19;20191;-78
2024/02/08 12:59:42;;;;;;;23.53;4.00;;;13.10;99.90;;;;;;7287563;19;20184;-78
2024/02/08 13:02:16;;;;;;;19.80;4.43;;;13.10;99.90;;;;;;7291197;19;20738;-79
2024/02/08 13:04:44;;;;;;;17.83;3.60;;;13.10;99.90;;;;;;7272251;19;20185;-78
2024/02/08 13:07:14;;;;;;;18.37;3.70;;;13.00;99.90;;;;;;7321365;19;20225;-79
2024/02/08 13:09:40;;;;;;;15.67;3.60;;;12.90;99.90;;;;;;7285521;19;20193;-78
2024/02/08 13:12:20;;;;;;;16.70;3.67;;;13.00;99.90;;;;;;7310389;19;20194;-80
2024/02/08 13:14:49;;;;;;;17.43;3.80;;;13.00;99.90;;;;;;7187760;19;2005163;-78
2024/02/08 13:17:21;;;;;;;18.90;3.47;;;13.00;99.90;;;;;;7293237;19;20219;-79
2024/02/08 13:19:47;;;;;;;18.07;3.23;;;12.90;99.90;;;;;;7291287;19;20672;-79
2024/02/08 13:22:14;;;;;;;17.07;3.23;;;13.00;99.90;;;;;;7291105;19;20207;-79
2024/02/08 13:24:40;;;;;;;22.77;3.60;;;12.90;99.90;;;;;;7313623;19;20191;-77
2024/02/08 13:27:06;;;;;;;17.93;4.10;;;12.90;99.90;;;;;;7302745;19;20261;-79
2024/02/08 13:29:34;;;;;;;16.47;3.73;;;12.70;99.90;;;;;;7288923;19;20248;-80
2024/02/08 13:32:01;;;;;;;19.73;3.93;;;12.80;99.90;;;;;;7290508;19;20206;-79
2024/02/08 13:34:27;;;;;;;13.53;3.67;;;12.70;99.90;;;;;;7290361;19;20185;-79
2024/02/08 13:36:53;;;;;;;21.10;3.87;;;12.70;99.90;;;;;;7291271;19;20268;-80
2024/02/08 13:39:25;;;;;;;18.47;4.03;;;12.70;99.90;;;;;;7288822;19;20711;-79
2024/02/08 13:41:51;;;;;;;15.93;3.70;;;12.80;99.90;;;;;;7288757;19;20193;-79
2024/02/08 13:44:20;;;;;;;19.63;4.20;;;12.90;99.90;;;;;;7288678;19;20201;-79
2024/02/08 13:46:48;;;;;;;16.33;4.10;;;12.90;99.90;;;;;;7286713;19;20192;-79
2024/02/08 13:49:15;;;;;;;15.60;3.90;;;12.90;99.90;;;;;;7288410;19;20209;-79
2024/02/08 13:51:44;;;;;;;18.43;4.20;;;12.80;99.90;;;;;;7297040;19;20327;-79
2024/02/08 13:54:13;;;;;;;22.03;4.53;;;12.80;99.90;;;;;;7309656;19;20301;-79
2024/02/08 13:56:40;;;;;;;19.50;4.40;;;12.90;99.90;;;;;;7288905;19;20189;-79
2024/02/08 13:59:06;;;;;;;20.37;4.30;;;12.90;99.90;;;;;;7288139;19;20187;-79
2024/02/08 14:01:32;;;;;;;22.87;4.57;;;12.90;99.90;;;;;;7288576;19;20214;-79
2024/02/08 14:03:58;;;;;;;21.00;4.70;;;12.90;99.90;;;;;;7289171;19;20536;-79
2024/02/08 14:06:25;;;;;;;25.47;4.73;;;12.90;99.90;;;;;;7287532;19;20185;-79
2024/02/08 14:08:54;;;;;;;26.20;5.07;;;12.90;99.90;;;;;;7283748;19;20188;-79
2024/02/08 14:11:25;;;;;;;19.43;4.47;;;12.90;99.90;;;;;;7287336;19;20207;-79
2024/02/08 14:13:52;;;;;;;23.87;5.23;;;12.90;99.90;;;;;;7287091;19;20181;-79
2024/02/08 14:16:21;;;;;;;23.03;5.13;;;12.90;99.90;;;;;;7287890;19;20193;-79
2024/02/08 14:18:52;;;;;;;21.73;5.67;;;13.10;99.90;;;;;;7286257;19;20196;-79
2024/02/08 14:21:24;;;;;;;24.97;5.53;;;13.10;99.90;;;;;;7287944;19;20213;-79
2024/02/08 14:23:53;;;;;;;23.10;5.67;;;13.20;99.90;;;;;;7287744;19;20196;-79
2024/02/08 14:28:49;;;;;;;22.50;5.43;;;13.10;99.90;;;;;;7285309;19;20181;-79
2024/02/08 14:31:16;;;;;;;18.43;4.73;;;13.20;99.90;;;;;;7286589;19;20714;-79
2024/02/08 14:33:45;;;;;;;20.47;4.67;;;13.20;99.90;;;;;;7292099;19;20191;-78
2024/02/08 14:36:12;;;;;;;21.87;5.10;;;13.30;99.90;;;;;;7296041;19;20185;-78
2024/02/08 14:38:45;;;;;;;24.70;4.60;;;13.30;99.90;;;;;;7307624;19;20252;-78
2024/02/08 14:44:05;;;;;;;27.87;5.00;;;13.30;99.90;;;;;;7286772;19;20528;-78
2024/02/08 14:46:36;;;;;;;22.27;4.97;;;13.20;99.90;;;;;;7285442;19;20233;-79
2024/02/08 14:49:16;;;;;;;25.07;5.10;;;13.30;99.90;;;;;;7282723;19;20270;-79
2024/02/08 14:51:48;;;;;;;20.07;5.53;;;13.20;99.90;;;;;;7264501;19;20188;-78
2024/02/08 14:54:17;;;;;;;19.30;4.47;;;13.20;99.90;;;;;;7283807;19;20208;-79
2024/02/08 14:56:43;;;;;;;19.93;4.70;;;13.20;99.90;;;;;;7280603;19;20222;-77
2024/02/08 15:01:39;;;;;;;20.97;4.47;;;13.30;99.90;;;;;;7284538;19;20206;-77
2024/02/08 15:04:17;;;;;;;23.40;4.50;;;13.30;99.90;;;;;;7294742;19;20233;-77
2024/02/08 15:07:05;;;;;;;19.53;4.40;;;13.40;99.90;;;;;;7273179;19;20198;-77
2024/02/08 15:14:43;;;;;;;19.67;4.20;;;13.40;99.90;;;;;;7264671;19;20248;-78
2024/02/08 15:17:19;;;;;;;15.40;3.80;;;13.40;99.90;;;;;;7308790;19;20195;-78
2024/02/08 15:19:45;;;;;;;20.17;4.33;;;13.40;99.90;;;;;;7263887;19;20197;-78
2024/02/08 15:22:19;;;;;;;18.47;4.90;;;13.10;99.90;;;;;;7293935;19;20256;-78